Larvik — C6VC2 — position and weather

sailwx.info

Track history (hours):
 
Tides and Currents Weather Stations Pressure Air Temp Water Temp Dewpoint Dewpoint Depression Visibility Wind Speed Wind Dir Waves Ship Positions

Larvik

Last reported at 2017-Sep-02 19:24 UTC. Time now 2017-Sep-23 18:33 UTC.
Position N 09°07' W 079°48'.
Warning: this ship's position is 20 days out of date.

Length 214 m; draft 11.7 m.

Type: Ship (hazmat cat D). MMSI: 308371000.

Date/timePositionNaut miles runAvg speedWind from/ knotsBaromVisibWave heightAir tempDewpointWater temp
2017-Sep-02 19:24N 09°07' W 079°48'5 7.7
2017-Sep-02 18:44N 09°11' W 079°52'2 7.9
2017-Sep-02 18:31N 09°11' W 079°53'3 5.4
2017-Sep-02 18:00N 09°13' W 079°56'0 0.1
2017-Sep-02 17:30N 09°13' W 079°56'0 0.1
2017-Sep-02 17:00N 09°13' W 079°56'0 0.0
2017-Sep-02 16:31N 09°13' W 079°56'0 0.0
2017-Sep-02 16:00N 09°13' W 079°56'0 0.0
2017-Sep-02 15:30N 09°13' W 079°56'0 0.1
2017-Sep-02 15:00N 09°13' W 079°56'0 0.0
2017-Sep-02 14:30N 09°13' W 079°56'0 0.1
2017-Sep-02 14:00N 09°13' W 079°56'0 0.1
2017-Sep-02 13:30N 09°13' W 079°56'0 0.1
2017-Sep-02 13:00N 09°13' W 079°56'0 0.0
2017-Sep-02 12:30N 09°13' W 079°56'0 0.0
2017-Sep-02 12:00N 09°13' W 079°56'0 0.1
2017-Sep-02 11:30N 09°13' W 079°56'0 0.3
2017-Sep-02 11:00N 09°13' W 079°56'3 5.8
2017-Sep-02 10:30N 09°15' W 079°55'1 1.3
2017-Sep-02 10:00N 09°16' W 079°55'0 0.5
2017-Sep-02 09:31N 09°16' W 079°55'0 0.5
2017-Sep-02 09:00N 09°17' W 079°55'1 1.3
2017-Sep-02 08:31N 09°17' W 079°55'2 3.6
2017-Sep-02 08:00N 09°19' W 079°55'3 6.3
2017-Sep-02 07:31N 09°22' W 079°55'0 0.6
2017-Sep-02 06:58N 09°22' W 079°55'0 0.0
2017-Sep-02 06:28N 09°22' W 079°55'0 0.1
2017-Sep-02 05:58N 09°22' W 079°55'0 0.0
2017-Sep-02 05:28N 09°22' W 079°55'0 0.0
2017-Sep-02 04:58N 09°22' W 079°55'0 0.0
2017-Sep-02 04:28N 09°22' W 079°55'0 0.0
2017-Sep-02 03:58N 09°22' W 079°55'0 0.0
2017-Sep-02 03:28N 09°22' W 079°55'0 0.0
2017-Sep-02 02:58N 09°22' W 079°55'0 0.0
2017-Sep-02 02:28N 09°22' W 079°55'0 0.0
2017-Sep-02 01:58N 09°22' W 079°55'0 0.0
2017-Sep-02 01:28N 09°22' W 079°55'0 0.0
2017-Sep-02 00:58N 09°22' W 079°55'0 0.0
2017-Sep-02 00:28N 09°22' W 079°55'0 0.0
2017-Sep-01 23:58N 09°22' W 079°55'0 0.1
2017-Sep-01 23:28N 09°22' W 079°55'0 0.0
2017-Sep-01 22:58N 09°22' W 079°55'0 0.0
2017-Sep-01 22:28N 09°22' W 079°55'0 0.1
2017-Sep-01 21:58N 09°22' W 079°55'0 0.0
2017-Sep-01 21:28N 09°22' W 079°55'0 0.0
2017-Sep-01 20:58N 09°22' W 079°55'0 0.1
2017-Sep-01 20:28N 09°22' W 079°55'0 0.0
2017-Sep-01 19:58N 09°22' W 079°55'0 0.0
2017-Sep-01 19:28N 09°22' W 079°55'0 0.0
2017-Sep-01 18:58N 09°22' W 079°55'0 0.0
2017-Sep-01 18:28N 09°22' W 079°55'0 0.0
2017-Sep-01 17:58N 09°22' W 079°55'0 0.0
2017-Sep-01 17:28N 09°22' W 079°55'0 0.0
2017-Sep-01 16:58N 09°22' W 079°55'0 0.2
2017-Sep-01 16:28N 09°22' W 079°55'0 0.1
2017-Sep-01 15:58N 09°22' W 079°55'0 0.1
2017-Sep-01 15:28N 09°22' W 079°55'0 0.0
2017-Sep-01 14:58N 09°22' W 079°55'0 0.0
2017-Sep-01 14:28N 09°22' W 079°55'0 0.0
2017-Sep-01 13:58N 09°22' W 079°55'0 0.4
2017-Sep-01 13:30N 09°22' W 079°55'2 3.3
2017-Sep-01 13:00N 09°24' W 079°55'3 6.4
2017-Sep-01 12:30N 09°27' W 079°55'2 4.1
2017-Sep-01 12:00N 09°29' W 079°56'0 0.2
2017-Sep-01 11:29N 09°29' W 079°56'0 0.0
2017-Sep-01 10:59N 09°29' W 079°56'0 0.0
2017-Sep-01 10:29N 09°29' W 079°56'0 0.0
2017-Sep-01 09:59N 09°29' W 079°56'0 0.0
2017-Sep-01 09:29N 09°29' W 079°56'0 0.0
2017-Sep-01 08:59N 09°29' W 079°56'0 0.0
2017-Sep-01 08:29N 09°29' W 079°56'0 0.0
2017-Sep-01 07:59N 09°29' W 079°56'0 0.0
2017-Sep-01 07:29N 09°29' W 079°56'0 0.0
2017-Sep-01 06:59N 09°29' W 079°56'0 0.0
2017-Sep-01 06:29N 09°29' W 079°56'0 0.1
2017-Sep-01 05:59N 09°29' W 079°56'1 1.7
2017-Sep-01 05:30N 09°28' W 079°55'4 8.4
2017-Sep-01 05:00N 09°32' W 079°53'611.8
2017-Sep-01 04:28N 09°38' W 079°52'511.1
2017-Sep-01 04:00N 09°43' W 079°50'611.6
2017-Sep-01 03:30N 09°46' W 079°45'  
2017-Aug-26 22:36N 14°02' W 061°05'1 2.4
2017-Aug-26 22:22N 14°03' W 061°06'3 1.8
2017-Aug-26 20:37N 14°03' W 061°02'2 4.2
2017-Aug-26 20:11N 14°05' W 061°01'1 3.6
2017-Aug-26 19:50N 14°06' W 061°00'0 0.2
2017-Aug-26 19:28N 14°06' W 061°00'0 0.1
2017-Aug-26 18:58N 14°06' W 061°00'0 0.0
2017-Aug-26 18:22N 14°06' W 061°00'0 0.0
2017-Aug-26 17:55N 14°06' W 061°00'0 0.0
2017-Aug-26 17:16N 14°06' W 061°00'0 0.0
2017-Aug-26 16:58N 14°06' W 061°00'0 0.0
2017-Aug-26 16:22N 14°06' W 061°00'0 0.0
2017-Aug-26 15:58N 14°06' W 061°00'0 0.0
2017-Aug-26 15:28N 14°06' W 061°00'0 0.0
2017-Aug-26 14:55N 14°06' W 061°00'0 0.0
2017-Aug-26 13:55N 14°06' W 061°00'0 0.0
2017-Aug-26 13:28N 14°06' W 061°00'0 0.1
2017-Aug-26 12:55N 14°06' W 061°00'0 0.0
2017-Aug-26 12:19N 14°06' W 061°00'0 0.1
2017-Aug-26 11:52N 14°06' W 061°00'0 0.1
2017-Aug-26 11:16N 14°06' W 061°00'0 0.2
2017-Aug-26 10:58N 14°06' W 061°00'0 0.1
2017-Aug-26 10:28N 14°06' W 061°00'0 0.0
2017-Aug-26 09:58N 14°06' W 061°00'0 0.0
2017-Aug-26 09:28N 14°06' W 061°00'0 0.0
2017-Aug-26 08:58N 14°06' W 061°00'0 0.0
2017-Aug-26 08:28N 14°06' W 061°00'0 0.1
2017-Aug-26 07:58N 14°06' W 061°00'0 0.0
2017-Aug-26 07:28N 14°06' W 061°00'0 0.0
2017-Aug-26 06:58N 14°06' W 061°00'0 0.1
2017-Aug-26 06:10N 14°06' W 061°00'0 0.2
2017-Aug-26 05:58N 14°06' W 061°00'0 0.0
2017-Aug-26 05:19N 14°06' W 061°00'0 0.1
2017-Aug-26 04:55N 14°06' W 061°00'0 0.2
2017-Aug-26 04:28N 14°06' W 061°00'0 0.1
2017-Aug-26 03:58N 14°06' W 061°00'0 0.1
2017-Aug-26 03:28N 14°06' W 061°00'0 0.1
2017-Aug-26 02:58N 14°06' W 061°00'0 0.1
2017-Aug-26 02:28N 14°06' W 061°00'0 0.1
2017-Aug-26 01:58N 14°06' W 061°00'0 0.0
2017-Aug-26 01:25N 14°06' W 061°00'0 0.1
2017-Aug-26 00:52N 14°06' W 061°00'0 0.1
2017-Aug-26 00:28N 14°06' W 061°00'0 0.0
2017-Aug-25 23:58N 14°06' W 061°00'0 0.1
2017-Aug-25 23:25N 14°06' W 061°00'0 0.1
2017-Aug-25 22:58N 14°06' W 061°00'0 0.0
2017-Aug-25 22:22N 14°06' W 061°00'0 0.0
2017-Aug-25 21:55N 14°06' W 061°00'0 0.0
2017-Aug-25 21:04N 14°06' W 061°00'0 0.0
2017-Aug-25 20:55N 14°06' W 061°00'0 0.0
2017-Aug-25 20:28N 14°06' W 061°00'0 0.0
2017-Aug-25 19:55N 14°06' W 061°00'0 0.1
2017-Aug-25 19:19N 14°06' W 061°00'0 0.2
2017-Aug-25 18:52N 14°06' W 061°00'0 0.1
2017-Aug-25 18:25N 14°06' W 061°00'0 0.2
2017-Aug-25 17:55N 14°06' W 061°00'0 0.0
2017-Aug-25 17:28N 14°06' W 061°00'0 0.0
2017-Aug-25 16:58N 14°06' W 061°00'0 0.0
2017-Aug-25 16:28N 14°06' W 061°00'0 0.0
2017-Aug-25 15:58N 14°06' W 061°00'0 0.1
2017-Aug-25 15:28N 14°06' W 061°00'0 0.0
2017-Aug-25 14:58N 14°06' W 061°00'0 0.0
2017-Aug-25 14:28N 14°06' W 061°00'0 0.0
2017-Aug-25 13:25N 14°06' W 061°00'0 0.0
2017-Aug-25 12:58N 14°06' W 061°00'0 0.0
2017-Aug-25 12:28N 14°06' W 061°00'0 0.0
2017-Aug-25 11:58N 14°06' W 061°00'0 0.0
2017-Aug-25 11:25N 14°06' W 061°00'0 0.0
2017-Aug-25 10:58N 14°06' W 061°00'0 0.0
2017-Aug-25 10:28N 14°06' W 061°00'0 0.0
2017-Aug-25 09:58N 14°06' W 061°00'0 0.0
2017-Aug-25 09:28N 14°06' W 061°00'0 0.0
2017-Aug-25 08:58N 14°06' W 061°00'0 0.0
2017-Aug-25 08:28N 14°06' W 061°00'0 0.0
2017-Aug-25 07:58N 14°06' W 061°00'0 0.0
2017-Aug-25 07:28N 14°06' W 061°00'0 0.0
2017-Aug-25 06:58N 14°06' W 061°00'0 0.0
2017-Aug-25 06:25N 14°06' W 061°00'0 0.0
2017-Aug-25 05:58N 14°06' W 061°00'0 0.0
2017-Aug-25 05:28N 14°06' W 061°00'0 0.0
2017-Aug-25 04:58N 14°06' W 061°00'0 0.0
2017-Aug-25 04:28N 14°06' W 061°00'0 0.1
2017-Aug-25 03:58N 14°06' W 061°00'0 0.0
2017-Aug-25 03:28N 14°06' W 061°00'0 0.0
2017-Aug-25 02:58N 14°06' W 061°00'0 0.0
2017-Aug-25 02:28N 14°06' W 061°00'0 0.0
2017-Aug-25 01:58N 14°06' W 061°00'0 0.0
2017-Aug-25 01:19N 14°06' W 061°00'0 0.0
2017-Aug-25 00:55N 14°06' W 061°00'0 0.0
2017-Aug-25 00:28N 14°06' W 061°00'0 0.0
2017-Aug-24 23:58N 14°06' W 061°00'0 0.0
2017-Aug-24 23:28N 14°06' W 061°00'0 0.0
2017-Aug-24 22:58N 14°06' W 061°00'0 0.0
2017-Aug-24 22:28N 14°06' W 061°00'0 0.0
2017-Aug-24 21:55N 14°06' W 061°00'0 0.0
2017-Aug-24 21:19N 14°06' W 061°00'0 0.0
2017-Aug-24 20:52N 14°06' W 061°00'0 0.0
2017-Aug-24 20:28N 14°06' W 061°00'0 0.0
2017-Aug-24 19:52N 14°06' W 061°00'0 0.0
2017-Aug-24 19:28N 14°06' W 061°00'0 0.0
2017-Aug-24 18:55N 14°06' W 061°00'0 0.0
2017-Aug-24 18:28N 14°06' W 061°00'0 0.0
2017-Aug-24 17:58N 14°06' W 061°00'0 0.1
2017-Aug-24 17:22N 14°06' W 061°00'0 0.0
2017-Aug-24 16:43N 14°06' W 061°00'0 0.0
2017-Aug-24 16:22N 14°06' W 061°00'0 0.1
2017-Aug-24 15:58N 14°06' W 061°00'0 0.1
2017-Aug-24 15:28N 14°06' W 061°00'0 0.0
2017-Aug-24 14:58N 14°06' W 061°00'0 0.0
2017-Aug-24 14:25N 14°06' W 061°00'0 0.0
2017-Aug-24 13:58N 14°06' W 061°00'0 0.0
2017-Aug-24 13:28N 14°06' W 061°00'0 0.0
2017-Aug-24 12:58N 14°06' W 061°00'0 0.0
2017-Aug-24 12:28N 14°06' W 061°00'0 0.0
2017-Aug-24 11:58N 14°06' W 061°00'0 0.0
2017-Aug-24 11:25N 14°06' W 061°00'0 0.0
2017-Aug-24 10:58N 14°06' W 061°00'0 0.0
2017-Aug-24 10:28N 14°06' W 061°00'0 0.0
2017-Aug-24 09:55N 14°06' W 061°00'0 0.1
2017-Aug-24 09:28N 14°06' W 061°00'0 0.1
2017-Aug-24 08:55N 14°06' W 061°00'0 0.1
2017-Aug-24 08:28N 14°06' W 061°00'0 0.1
2017-Aug-24 07:58N 14°06' W 061°00'0 0.0
2017-Aug-24 07:28N 14°06' W 061°00'0 0.0
2017-Aug-24 06:58N 14°06' W 061°00'0 0.0
2017-Aug-24 06:25N 14°06' W 061°00'0 0.0
2017-Aug-24 05:58N 14°06' W 061°00'0 0.1
2017-Aug-24 05:28N 14°06' W 061°00'0 0.1
2017-Aug-24 04:58N 14°06' W 061°00'0 0.1
2017-Aug-24 04:25N 14°06' W 061°00'0 0.1
2017-Aug-24 03:52N 14°06' W 061°00'0 0.0
2017-Aug-24 03:28N 14°06' W 061°00'0 0.0
2017-Aug-24 02:58N 14°06' W 061°00'0 0.0
2017-Aug-24 02:28N 14°06' W 061°00'0 0.0
2017-Aug-24 01:58N 14°06' W 061°00'0 0.0
2017-Aug-24 01:28N 14°06' W 061°00'0 0.0
2017-Aug-24 00:55N 14°06' W 061°00'0 0.0
2017-Aug-24 00:28N 14°06' W 061°00'0 0.0
2017-Aug-23 23:58N 14°06' W 061°00'0 0.1
2017-Aug-23 23:22N 14°06' W 061°00'0 0.1
2017-Aug-23 22:55N 14°06' W 061°00'0 0.0
2017-Aug-23 22:22N 14°06' W 061°00'0 0.2
2017-Aug-23 21:58N 14°06' W 061°00'0 0.1
2017-Aug-23 20:46N 14°06' W 061°00'0 0.1
2017-Aug-23 20:25N 14°06' W 061°00'0 0.0
2017-Aug-23 19:55N 14°06' W 061°00'0 0.0
2017-Aug-23 19:28N 14°06' W 061°00'  
Track history (hours):
 
Tides and Currents Weather Stations Pressure Air Temp Water Temp Dewpoint Dewpoint Depression Visibility Wind Speed Wind Dir Waves Ship Positions

Larvik

Last reported at 2017-Sep-02 19:24 UTC. Time now 2017-Sep-23 18:33 UTC.
Position N 09°07' W 079°48'.
Warning: this ship's position is 20 days out of date.

Length 214 m; draft 11.7 m.

Type: Ship (hazmat cat D). MMSI: 308371000.

Date/timePositionNaut miles runAvg speedWind from/ knotsBaromVisibWave heightAir tempDewpointWater temp
2017-Sep-02 19:24N 09°07' W 079°48'5 7.7
2017-Sep-02 18:44N 09°11' W 079°52'2 7.9
2017-Sep-02 18:31N 09°11' W 079°53'3 5.4
2017-Sep-02 18:00N 09°13' W 079°56'0 0.1
2017-Sep-02 17:30N 09°13' W 079°56'0 0.1
2017-Sep-02 17:00N 09°13' W 079°56'0 0.0
2017-Sep-02 16:31N 09°13' W 079°56'0 0.0
2017-Sep-02 16:00N 09°13' W 079°56'0 0.0
2017-Sep-02 15:30N 09°13' W 079°56'0 0.1
2017-Sep-02 15:00N 09°13' W 079°56'0 0.0
2017-Sep-02 14:30N 09°13' W 079°56'0 0.1
2017-Sep-02 14:00N 09°13' W 079°56'0 0.1
2017-Sep-02 13:30N 09°13' W 079°56'0 0.1
2017-Sep-02 13:00N 09°13' W 079°56'0 0.0
2017-Sep-02 12:30N 09°13' W 079°56'0 0.0
2017-Sep-02 12:00N 09°13' W 079°56'0 0.1
2017-Sep-02 11:30N 09°13' W 079°56'0 0.3
2017-Sep-02 11:00N 09°13' W 079°56'3 5.8
2017-Sep-02 10:30N 09°15' W 079°55'1 1.3
2017-Sep-02 10:00N 09°16' W 079°55'0 0.5
2017-Sep-02 09:31N 09°16' W 079°55'0 0.5
2017-Sep-02 09:00N 09°17' W 079°55'1 1.3
2017-Sep-02 08:31N 09°17' W 079°55'2 3.6
2017-Sep-02 08:00N 09°19' W 079°55'3 6.3
2017-Sep-02 07:31N 09°22' W 079°55'0 0.6
2017-Sep-02 06:58N 09°22' W 079°55'0 0.0
2017-Sep-02 06:28N 09°22' W 079°55'0 0.1
2017-Sep-02 05:58N 09°22' W 079°55'0 0.0
2017-Sep-02 05:28N 09°22' W 079°55'0 0.0
2017-Sep-02 04:58N 09°22' W 079°55'0 0.0
2017-Sep-02 04:28N 09°22' W 079°55'0 0.0
2017-Sep-02 03:58N 09°22' W 079°55'0 0.0
2017-Sep-02 03:28N 09°22' W 079°55'0 0.0
2017-Sep-02 02:58N 09°22' W 079°55'0 0.0
2017-Sep-02 02:28N 09°22' W 079°55'0 0.0
2017-Sep-02 01:58N 09°22' W 079°55'0 0.0
2017-Sep-02 01:28N 09°22' W 079°55'0 0.0
2017-Sep-02 00:58N 09°22' W 079°55'0 0.0
2017-Sep-02 00:28N 09°22' W 079°55'0 0.0
2017-Sep-01 23:58N 09°22' W 079°55'0 0.1
2017-Sep-01 23:28N 09°22' W 079°55'0 0.0
2017-Sep-01 22:58N 09°22' W 079°55'0 0.0
2017-Sep-01 22:28N 09°22' W 079°55'0 0.1
2017-Sep-01 21:58N 09°22' W 079°55'0 0.0
2017-Sep-01 21:28N 09°22' W 079°55'0 0.0
2017-Sep-01 20:58N 09°22' W 079°55'0 0.1
2017-Sep-01 20:28N 09°22' W 079°55'0 0.0
2017-Sep-01 19:58N 09°22' W 079°55'0 0.0
2017-Sep-01 19:28N 09°22' W 079°55'0 0.0
2017-Sep-01 18:58N 09°22' W 079°55'0 0.0
2017-Sep-01 18:28N 09°22' W 079°55'0 0.0
2017-Sep-01 17:58N 09°22' W 079°55'0 0.0
2017-Sep-01 17:28N 09°22' W 079°55'0 0.0
2017-Sep-01 16:58N 09°22' W 079°55'0 0.2
2017-Sep-01 16:28N 09°22' W 079°55'0 0.1
2017-Sep-01 15:58N 09°22' W 079°55'0 0.1
2017-Sep-01 15:28N 09°22' W 079°55'0 0.0
2017-Sep-01 14:58N 09°22' W 079°55'0 0.0
2017-Sep-01 14:28N 09°22' W 079°55'0 0.0
2017-Sep-01 13:58N 09°22' W 079°55'0 0.4
2017-Sep-01 13:30N 09°22' W 079°55'2 3.3
2017-Sep-01 13:00N 09°24' W 079°55'3 6.4
2017-Sep-01 12:30N 09°27' W 079°55'2 4.1
2017-Sep-01 12:00N 09°29' W 079°56'0 0.2
2017-Sep-01 11:29N 09°29' W 079°56'0 0.0
2017-Sep-01 10:59N 09°29' W 079°56'0 0.0
2017-Sep-01 10:29N 09°29' W 079°56'0 0.0
2017-Sep-01 09:59N 09°29' W 079°56'0 0.0
2017-Sep-01 09:29N 09°29' W 079°56'0 0.0
2017-Sep-01 08:59N 09°29' W 079°56'0 0.0
2017-Sep-01 08:29N 09°29' W 079°56'0 0.0
2017-Sep-01 07:59N 09°29' W 079°56'0 0.0
2017-Sep-01 07:29N 09°29' W 079°56'0 0.0
2017-Sep-01 06:59N 09°29' W 079°56'0 0.0
2017-Sep-01 06:29N 09°29' W 079°56'0 0.1
2017-Sep-01 05:59N 09°29' W 079°56'1 1.7
2017-Sep-01 05:30N 09°28' W 079°55'4 8.4
2017-Sep-01 05:00N 09°32' W 079°53'611.8
2017-Sep-01 04:28N 09°38' W 079°52'511.1
2017-Sep-01 04:00N 09°43' W 079°50'611.6
2017-Sep-01 03:30N 09°46' W 079°45'  
2017-Aug-26 22:36N 14°02' W 061°05'1 2.4
2017-Aug-26 22:22N 14°03' W 061°06'3 1.8
2017-Aug-26 20:37N 14°03' W 061°02'2 4.2
2017-Aug-26 20:11N 14°05' W 061°01'1 3.6
2017-Aug-26 19:50N 14°06' W 061°00'0 0.2
2017-Aug-26 19:28N 14°06' W 061°00'0 0.1
2017-Aug-26 18:58N 14°06' W 061°00'0 0.0
2017-Aug-26 18:22N 14°06' W 061°00'0 0.0
2017-Aug-26 17:55N 14°06' W 061°00'0 0.0
2017-Aug-26 17:16N 14°06' W 061°00'0 0.0
2017-Aug-26 16:58N 14°06' W 061°00'0 0.0
2017-Aug-26 16:22N 14°06' W 061°00'0 0.0
2017-Aug-26 15:58N 14°06' W 061°00'0 0.0
2017-Aug-26 15:28N 14°06' W 061°00'0 0.0
2017-Aug-26 14:55N 14°06' W 061°00'0 0.0
2017-Aug-26 13:55N 14°06' W 061°00'0 0.0
2017-Aug-26 13:28N 14°06' W 061°00'0 0.1
2017-Aug-26 12:55N 14°06' W 061°00'0 0.0
2017-Aug-26 12:19N 14°06' W 061°00'0 0.1
2017-Aug-26 11:52N 14°06' W 061°00'0 0.1
2017-Aug-26 11:16N 14°06' W 061°00'0 0.2
2017-Aug-26 10:58N 14°06' W 061°00'0 0.1
2017-Aug-26 10:28N 14°06' W 061°00'0 0.0
2017-Aug-26 09:58N 14°06' W 061°00'0 0.0
2017-Aug-26 09:28N 14°06' W 061°00'0 0.0
2017-Aug-26 08:58N 14°06' W 061°00'0 0.0
2017-Aug-26 08:28N 14°06' W 061°00'0 0.1
2017-Aug-26 07:58N 14°06' W 061°00'0 0.0
2017-Aug-26 07:28N 14°06' W 061°00'0 0.0
2017-Aug-26 06:58N 14°06' W 061°00'0 0.1
2017-Aug-26 06:10N 14°06' W 061°00'0 0.2
2017-Aug-26 05:58N 14°06' W 061°00'0 0.0
2017-Aug-26 05:19N 14°06' W 061°00'0 0.1
2017-Aug-26 04:55N 14°06' W 061°00'0 0.2
2017-Aug-26 04:28N 14°06' W 061°00'0 0.1
2017-Aug-26 03:58N 14°06' W 061°00'0 0.1
2017-Aug-26 03:28N 14°06' W 061°00'0 0.1
2017-Aug-26 02:58N 14°06' W 061°00'0 0.1
2017-Aug-26 02:28N 14°06' W 061°00'0 0.1
2017-Aug-26 01:58N 14°06' W 061°00'0 0.0
2017-Aug-26 01:25N 14°06' W 061°00'0 0.1
2017-Aug-26 00:52N 14°06' W 061°00'0 0.1
2017-Aug-26 00:28N 14°06' W 061°00'0 0.0
2017-Aug-25 23:58N 14°06' W 061°00'0 0.1
2017-Aug-25 23:25N 14°06' W 061°00'0 0.1
2017-Aug-25 22:58N 14°06' W 061°00'0 0.0
2017-Aug-25 22:22N 14°06' W 061°00'0 0.0
2017-Aug-25 21:55N 14°06' W 061°00'0 0.0
2017-Aug-25 21:04N 14°06' W 061°00'0 0.0
2017-Aug-25 20:55N 14°06' W 061°00'0 0.0
2017-Aug-25 20:28N 14°06' W 061°00'0 0.0
2017-Aug-25 19:55N 14°06' W 061°00'0 0.1
2017-Aug-25 19:19N 14°06' W 061°00'0 0.2
2017-Aug-25 18:52N 14°06' W 061°00'0 0.1
2017-Aug-25 18:25N 14°06' W 061°00'0 0.2
2017-Aug-25 17:55N 14°06' W 061°00'0 0.0
2017-Aug-25 17:28N 14°06' W 061°00'0 0.0
2017-Aug-25 16:58N 14°06' W 061°00'0 0.0
2017-Aug-25 16:28N 14°06' W 061°00'0 0.0
2017-Aug-25 15:58N 14°06' W 061°00'0 0.1
2017-Aug-25 15:28N 14°06' W 061°00'0 0.0
2017-Aug-25 14:58N 14°06' W 061°00'0 0.0
2017-Aug-25 14:28N 14°06' W 061°00'0 0.0
2017-Aug-25 13:25N 14°06' W 061°00'0 0.0
2017-Aug-25 12:58N 14°06' W 061°00'0 0.0
2017-Aug-25 12:28N 14°06' W 061°00'0 0.0
2017-Aug-25 11:58N 14°06' W 061°00'0 0.0
2017-Aug-25 11:25N 14°06' W 061°00'0 0.0
2017-Aug-25 10:58N 14°06' W 061°00'0 0.0
2017-Aug-25 10:28N 14°06' W 061°00'0 0.0
2017-Aug-25 09:58N 14°06' W 061°00'0 0.0
2017-Aug-25 09:28N 14°06' W 061°00'0 0.0
2017-Aug-25 08:58N 14°06' W 061°00'0 0.0
2017-Aug-25 08:28N 14°06' W 061°00'0 0.0
2017-Aug-25 07:58N 14°06' W 061°00'0 0.0
2017-Aug-25 07:28N 14°06' W 061°00'0 0.0
2017-Aug-25 06:58N 14°06' W 061°00'0 0.0
2017-Aug-25 06:25N 14°06' W 061°00'0 0.0
2017-Aug-25 05:58N 14°06' W 061°00'0 0.0
2017-Aug-25 05:28N 14°06' W 061°00'0 0.0
2017-Aug-25 04:58N 14°06' W 061°00'0 0.0
2017-Aug-25 04:28N 14°06' W 061°00'0 0.1
2017-Aug-25 03:58N 14°06' W 061°00'0 0.0
2017-Aug-25 03:28N 14°06' W 061°00'0 0.0
2017-Aug-25 02:58N 14°06' W 061°00'0 0.0
2017-Aug-25 02:28N 14°06' W 061°00'0 0.0
2017-Aug-25 01:58N 14°06' W 061°00'0 0.0
2017-Aug-25 01:19N 14°06' W 061°00'0 0.0
2017-Aug-25 00:55N 14°06' W 061°00'0 0.0
2017-Aug-25 00:28N 14°06' W 061°00'0 0.0
2017-Aug-24 23:58N 14°06' W 061°00'0 0.0
2017-Aug-24 23:28N 14°06' W 061°00'0 0.0
2017-Aug-24 22:58N 14°06' W 061°00'0 0.0
2017-Aug-24 22:28N 14°06' W 061°00'0 0.0
2017-Aug-24 21:55N 14°06' W 061°00'0 0.0
2017-Aug-24 21:19N 14°06' W 061°00'0 0.0
2017-Aug-24 20:52N 14°06' W 061°00'0 0.0
2017-Aug-24 20:28N 14°06' W 061°00'0 0.0
2017-Aug-24 19:52N 14°06' W 061°00'0 0.0
2017-Aug-24 19:28N 14°06' W 061°00'0 0.0
2017-Aug-24 18:55N 14°06' W 061°00'0 0.0
2017-Aug-24 18:28N 14°06' W 061°00'0 0.0
2017-Aug-24 17:58N 14°06' W 061°00'0 0.1
2017-Aug-24 17:22N 14°06' W 061°00'0 0.0
2017-Aug-24 16:43N 14°06' W 061°00'0 0.0
2017-Aug-24 16:22N 14°06' W 061°00'0 0.1
2017-Aug-24 15:58N 14°06' W 061°00'0 0.1
2017-Aug-24 15:28N 14°06' W 061°00'0 0.0
2017-Aug-24 14:58N 14°06' W 061°00'0 0.0
2017-Aug-24 14:25N 14°06' W 061°00'0 0.0
2017-Aug-24 13:58N 14°06' W 061°00'0 0.0
2017-Aug-24 13:28N 14°06' W 061°00'0 0.0
2017-Aug-24 12:58N 14°06' W 061°00'0 0.0
2017-Aug-24 12:28N 14°06' W 061°00'0 0.0
2017-Aug-24 11:58N 14°06' W 061°00'0 0.0
2017-Aug-24 11:25N 14°06' W 061°00'0 0.0
2017-Aug-24 10:58N 14°06' W 061°00'0 0.0
2017-Aug-24 10:28N 14°06' W 061°00'0 0.0
2017-Aug-24 09:55N 14°06' W 061°00'0 0.1
2017-Aug-24 09:28N 14°06' W 061°00'0 0.1
2017-Aug-24 08:55N 14°06' W 061°00'0 0.1
2017-Aug-24 08:28N 14°06' W 061°00'0 0.1
2017-Aug-24 07:58N 14°06' W 061°00'0 0.0
2017-Aug-24 07:28N 14°06' W 061°00'0 0.0
2017-Aug-24 06:58N 14°06' W 061°00'0 0.0
2017-Aug-24 06:25N 14°06' W 061°00'0 0.0
2017-Aug-24 05:58N 14°06' W 061°00'0 0.1
2017-Aug-24 05:28N 14°06' W 061°00'0 0.1
2017-Aug-24 04:58N 14°06' W 061°00'0 0.1
2017-Aug-24 04:25N 14°06' W 061°00'0 0.1
2017-Aug-24 03:52N 14°06' W 061°00'0 0.0
2017-Aug-24 03:28N 14°06' W 061°00'0 0.0
2017-Aug-24 02:58N 14°06' W 061°00'0 0.0
2017-Aug-24 02:28N 14°06' W 061°00'0 0.0
2017-Aug-24 01:58N 14°06' W 061°00'0 0.0
2017-Aug-24 01:28N 14°06' W 061°00'0 0.0
2017-Aug-24 00:55N 14°06' W 061°00'0 0.0
2017-Aug-24 00:28N 14°06' W 061°00'0 0.0
2017-Aug-23 23:58N 14°06' W 061°00'0 0.1
2017-Aug-23 23:22N 14°06' W 061°00'0 0.1
2017-Aug-23 22:55N 14°06' W 061°00'0 0.0
2017-Aug-23 22:22N 14°06' W 061°00'0 0.2
2017-Aug-23 21:58N 14°06' W 061°00'0 0.1
2017-Aug-23 20:46N 14°06' W 061°00'0 0.1
2017-Aug-23 20:25N 14°06' W 061°00'0 0.0
2017-Aug-23 19:55N 14°06' W 061°00'0 0.0
2017-Aug-23 19:28N 14°06' W 061°00'  

Dump ship's entire track history